createdAt,value
2018-10-12T13:04:11.761Z,38.50
2018-10-12T13:09:14.158Z,38.40
2018-10-12T13:14:16.511Z,38.60
2018-10-12T13:19:18.854Z,38.20
2018-10-12T13:24:21.247Z,38.90
2018-10-12T13:29:23.465Z,38.90
2018-10-12T13:34:25.590Z,38.60
2018-10-12T13:39:27.710Z,39.20
2018-10-12T13:44:29.837Z,39.50
2018-10-12T13:49:31.986Z,39.50
2018-10-12T13:54:34.182Z,39.30
2018-10-12T13:59:36.326Z,39.40
2018-10-12T14:04:38.501Z,38.10
2018-10-12T14:09:40.631Z,38.60
2018-10-12T14:14:42.786Z,38.20
2018-10-12T14:19:45.131Z,38.30
2018-10-12T14:24:47.266Z,38.00
2018-10-12T14:29:49.432Z,37.70
2018-10-12T14:34:51.602Z,37.50
2018-10-12T14:39:53.786Z,37.70
2018-10-12T14:44:55.968Z,37.80
2018-10-12T14:49:58.070Z,38.00
2018-10-12T14:55:00.221Z,37.00
2018-10-12T15:00:02.434Z,36.80
2018-10-12T15:05:04.618Z,34.50
2018-10-12T15:10:06.771Z,35.10
2018-10-12T15:15:14.109Z,35.50
2018-10-12T15:20:16.401Z,35.60
2018-10-12T15:25:18.844Z,35.90
2018-10-12T15:30:21.029Z,35.60
2018-10-12T15:35:23.283Z,35.70
2018-10-12T15:40:25.451Z,36.10
2018-10-12T15:45:27.617Z,36.30
2018-10-12T15:50:29.782Z,36.70
2018-10-12T15:55:31.962Z,37.00
2018-10-12T16:00:34.118Z,37.50
2018-10-12T16:05:36.269Z,37.60
2018-10-12T16:10:38.492Z,37.80
2018-10-12T16:15:40.643Z,37.90
2018-10-12T16:20:42.794Z,38.40
2018-10-12T16:25:58.050Z,38.60
2018-10-12T16:31:00.214Z,39.20
2018-10-12T16:36:02.384Z,40.20
2018-10-12T16:41:04.594Z,41.40
2018-10-12T16:46:06.810Z,42.30
2018-10-12T16:51:08.954Z,43.10
2018-10-12T16:56:11.110Z,43.40
2018-10-12T17:01:13.270Z,44.00
2018-10-12T17:06:15.543Z,44.90
2018-10-12T17:11:17.699Z,45.70
2018-10-12T17:16:19.846Z,46.50
2018-10-12T17:21:22.090Z,47.30
2018-10-12T17:26:24.243Z,48.00
2018-10-12T17:31:26.423Z,48.70
2018-10-12T17:36:28.733Z,49.10
2018-10-12T17:41:30.929Z,49.80
2018-10-12T17:46:33.162Z,50.50
2018-10-12T17:51:35.307Z,50.60
2018-10-12T17:56:37.469Z,51.30
2018-10-12T18:01:39.680Z,51.70
2018-10-12T18:06:41.826Z,52.20
2018-10-12T18:11:43.998Z,52.60
2018-10-12T18:16:46.230Z,52.90
2018-10-12T18:21:48.391Z,53.30
2018-10-12T18:26:50.569Z,54.30
2018-10-12T18:31:52.757Z,54.60
2018-10-12T18:36:55.003Z,55.10
2018-10-12T18:41:57.102Z,55.50
2018-10-12T18:46:59.280Z,56.10
2018-10-12T18:52:01.462Z,56.40
2018-10-12T18:57:03.658Z,56.40
2018-10-12T19:02:05.818Z,56.30
2018-10-12T19:07:08.110Z,56.40
2018-10-12T19:12:10.342Z,56.50
2018-10-12T19:17:12.574Z,56.80
2018-10-12T19:22:14.870Z,57.10
2018-10-12T19:27:17.073Z,57.30
2018-10-12T19:32:19.358Z,57.60
2018-10-12T19:37:21.582Z,57.60
2018-10-12T19:42:23.855Z,57.70
2018-10-12T19:47:26.114Z,57.70
2018-10-12T19:52:28.558Z,57.80
2018-10-12T19:57:30.868Z,57.80
2018-10-12T20:02:33.121Z,58.00
2018-10-12T20:07:36.346Z,58.40
2018-10-12T20:12:40.702Z,58.30
2018-10-12T20:17:45.161Z,58.40
2018-10-12T20:22:49.386Z,58.50
2018-10-12T20:27:53.742Z,58.80
2018-10-12T20:32:58.069Z,59.00
2018-10-12T20:38:02.378Z,59.10
2018-10-12T20:43:06.819Z,59.40
2018-10-12T20:48:11.139Z,59.60
2018-10-12T20:53:15.482Z,59.50
2018-10-12T20:58:19.817Z,59.70
2018-10-12T21:03:24.189Z,60.40
2018-10-12T21:08:28.515Z,60.80
2018-10-12T21:13:32.818Z,62.10
2018-10-12T21:18:37.130Z,63.30
2018-10-12T21:23:41.462Z,64.20
2018-10-12T21:28:45.766Z,64.80
2018-10-12T21:33:50.083Z,64.60
2018-10-12T21:38:54.417Z,64.30
2018-10-12T21:43:58.737Z,66.30
2018-10-12T21:49:03.073Z,67.20
2018-10-12T21:54:07.395Z,69.40
2018-10-12T21:59:11.714Z,69.70
2018-10-12T22:04:16.040Z,70.40
2018-10-12T22:09:20.362Z,71.40
2018-10-12T22:14:24.682Z,71.70
2018-10-12T22:19:29.014Z,72.80
2018-10-12T22:24:33.338Z,72.20
2018-10-12T22:29:37.674Z,72.50
2018-10-12T22:34:41.991Z,74.40
2018-10-12T22:39:46.320Z,75.60
2018-10-12T22:44:50.689Z,76.50
2018-10-12T22:49:55.006Z,78.90
2018-10-12T22:54:59.377Z,79.10
2018-10-12T23:00:03.722Z,84.10
2018-10-12T23:05:08.042Z,81.20
2018-10-12T23:10:12.431Z,79.50
2018-10-12T23:15:16.766Z,79.30
2018-10-12T23:20:21.135Z,77.80
2018-10-12T23:25:25.474Z,77.70
2018-10-12T23:30:29.806Z,77.50
2018-10-12T23:35:34.137Z,79.40
2018-10-12T23:40:38.506Z,80.00
2018-10-12T23:45:42.814Z,79.90
2018-10-12T23:50:47.170Z,80.70
2018-10-12T23:55:51.558Z,81.40
